Time;durP1;ratioP1;P1;durP2;ratioP2;P2;SDS_P1;SDS_P2;PMS_P1;PMS_P2;Temp;Humidity;BMP_temperature;BMP_pressure;BME280_temperature;BME280_humidity;BME280_pressure;Samples;Min_cycle;Max_cycle;Signal;HPM_P1;HPM_P2
2021/05/22 00:00:21;;;;;;;1.80;0.50;;;;;;;14.02;76.08;100466.72;1742207;81;21319;-59
2021/05/22 00:02:54;;;;;;;1.75;0.70;;;;;;;14.01;75.96;100466.88;1801387;79;21431;-59
2021/05/22 00:05:27;;;;;;;4.08;0.80;;;;;;;13.99;75.93;100476.26;1784631;79;21774;-59
2021/05/22 00:08:01;;;;;;;0.60;0.60;;;;;;;13.94;75.93;100477.20;1750243;81;21820;-59
2021/05/22 00:10:34;;;;;;;2.90;0.77;;;;;;;13.91;76.02;100480.13;1794833;79;21312;-59
2021/05/22 00:13:07;;;;;;;1.92;0.72;;;;;;;13.89;76.03;100481.26;1789470;79;21299;-60
2021/05/22 00:15:42;;;;;;;1.47;0.80;;;;;;;13.88;76.10;100480.42;1766099;79;21359;-59
2021/05/22 00:18:15;;;;;;;3.95;1.00;;;;;;;13.89;76.08;100480.77;1766937;81;21803;-59
2021/05/22 00:20:48;;;;;;;1.25;0.70;;;;;;;13.90;76.09;100488.19;1793409;79;21160;-59
2021/05/22 00:23:24;;;;;;;4.67;0.70;;;;;;;13.90;75.91;100502.15;1743335;81;21331;-59
2021/05/22 00:25:57;;;;;;;1.20;0.70;;;;;;;13.88;75.94;100497.53;1782844;79;21205;-59
2021/05/22 00:28:30;;;;;;;;;;;;;;;13.92;76.03;100505.97;1742960;81;21754;-58
2021/05/22 00:31:03;;;;;;;2.22;0.70;;;;;;;13.96;76.00;100506.83;1802407;79;20189;-58
2021/05/22 00:33:36;;;;;;;3.20;0.93;;;;;;;14.02;75.97;100506.69;1802946;79;21153;-58
2021/05/22 00:36:12;;;;;;;0.65;0.65;;;;;;;14.07;75.75;100499.16;1798843;79;21256;-58
2021/05/22 00:38:45;;;;;;;2.20;0.82;;;;;;;14.09;75.50;100498.03;1782073;79;21786;-60
2021/05/22 00:41:18;;;;;;;0.67;0.50;;;;;;;14.05;74.96;100502.44;1743145;81;21332;-58
2021/05/22 00:43:51;;;;;;;1.57;0.80;;;;;;;14.05;74.96;100502.44;1718968;82;21721;-59
2021/05/22 00:46:25;;;;;;;1.80;0.80;;;;;;;13.98;75.16;100503.55;1772785;79;21802;-59
2021/05/22 00:48:57;;;;;;;;;;;;;;;13.90;75.16;100497.40;1751531;81;21331;-59
2021/05/22 00:51:30;;;;;;;0.95;0.70;;;;;;;13.82;75.32;100498.15;1702814;82;20203;-60
2021/05/22 00:54:04;;;;;;;2.37;0.67;;;;;;;13.75;75.52;100494.47;1726989;82;21874;-59
2021/05/22 00:56:37;;;;;;;2.22;0.85;;;;;;;13.70;75.67;100491.45;1745578;81;21177;-58
2021/05/22 00:59:11;;;;;;;3.83;0.70;;;;;;;13.67;75.80;100500.12;1772911;79;21221;-59
2021/05/22 01:01:43;;;;;;;;;;;;;;;13.63;75.90;100502.73;1737826;81;21339;-59
2021/05/22 01:04:19;;;;;;;2.37;0.80;;;;;;;13.56;75.96;100501.19;1726480;82;20328;-58
2021/05/22 01:06:53;;;;;;;1.60;0.93;;;;;;;13.50;76.07;100502.60;1802412;79;21722;-60
2021/05/22 01:09:26;;;;;;;3.42;0.90;;;;;;;13.42;76.14;100504.33;1743771;81;21193;-59
2021/05/22 01:12:02;;;;;;;;;;;;;;;13.36;76.27;100514.11;1803683;79;21141;-59
2021/05/22 01:14:53;;;;;;;0.60;0.60;;;;;;;13.29;76.46;100511.73;1794581;79;20181;-59
2021/05/22 01:17:26;;;;;;;1.02;0.93;;;;;;;13.20;76.67;100516.08;1756376;81;21265;-60
2021/05/22 01:20:05;;;;;;;;;;;;;;;13.17;76.94;100510.27;1725227;82;21176;-60
2021/05/22 01:22:44;;;;;;;1.02;0.78;;;;;;;13.15;77.11;100509.59;1797214;79;20602;-59
2021/05/22 01:25:24;;;;;;;1.05;0.80;;;;;;;13.10;77.27;100510.03;1786840;79;21197;-58
2021/05/22 01:27:59;;;;;;;1.07;0.82;;;;;;;13.08;77.41;100515.93;1797498;79;21231;-58
2021/05/22 01:30:32;;;;;;;0.93;0.82;;;;;;;13.07;77.54;100516.05;1778575;79;21164;-59
2021/05/22 01:33:08;;;;;;;2.02;1.00;;;;;;;13.07;77.69;100518.68;1748282;81;21178;-59
2021/05/22 01:35:42;;;;;;;2.47;0.70;;;;;;;13.06;77.77;100526.25;1791331;79;22542;-59
2021/05/22 01:38:15;;;;;;;3.80;0.90;;;;;;;13.04;77.89;100527.66;1790315;79;21775;-59
2021/05/22 01:40:50;;;;;;;0.40;0.40;;;;;;;13.04;77.92;100528.97;1793961;79;21204;-59
2021/05/22 01:43:22;;;;;;;0.88;0.88;;;;;;;13.04;78.00;100525.53;1752282;81;21276;-59
2021/05/22 01:45:56;;;;;;;1.67;0.80;;;;;;;13.05;78.06;100514.86;1710578;82;21760;-59
2021/05/22 01:48:29;;;;;;;1.95;0.78;;;;;;;13.06;78.04;100503.91;1791971;79;21795;-59
2021/05/22 01:51:07;;;;;;;;;;;;;;;13.08;78.06;100501.95;1746160;81;21137;-59
2021/05/22 01:53:42;;;;;;;0.90;0.75;;;;;;;13.10;78.10;100502.15;1775696;79;20610;-58
2021/05/22 01:56:15;;;;;;;1.62;0.82;;;;;;;13.15;78.14;100504.33;1750188;81;21284;-60
2021/05/22 01:58:48;;;;;;;;;;;;;;;13.20;78.12;100497.67;1804469;79;21683;-60
2021/05/22 02:01:25;;;;;;;1.30;0.80;;;;;;;13.29;78.02;100505.98;1777211;79;20229;-60
2021/05/22 02:03:57;;;;;;;0.80;0.70;;;;;;;13.35;77.92;100506.70;1746425;81;21838;-59
2021/05/22 02:06:33;;;;;;;1.85;0.45;;;;;;;13.42;77.74;100516.97;1777939;79;21877;-60
2021/05/22 02:09:07;;;;;;;1.25;0.68;;;;;;;13.50;77.58;100524.13;1735775;81;21211;-60
2021/05/22 02:11:43;;;;;;;3.30;0.62;;;;;;;13.56;77.35;100520.91;1713683;82;21815;-61
2021/05/22 02:14:20;;;;;;;3.22;0.70;;;;;;;13.63;77.16;100524.61;1764483;81;21293;-62
2021/05/22 02:16:54;;;;;;;4.67;0.70;;;;;;;13.72;76.84;100531.59;1708805;82;21292;-59
2021/05/22 02:19:29;;;;;;;0.70;0.60;;;;;;;13.81;76.46;100553.06;1733441;81;21224;-60
2021/05/22 02:22:03;;;;;;;1.12;0.53;;;;;;;13.91;76.29;100575.36;1734804;81;21276;-60
2021/05/22 02:24:36;;;;;;;3.85;0.70;;;;;;;14.05;75.98;100594.09;1747113;81;21283;-62
2021/05/22 02:27:10;;;;;;;0.90;0.60;;;;;;;14.17;75.58;100599.48;1701867;80;21268;-59
2021/05/22 02:29:43;;;;;;;6.07;1.17;;;;;;;14.32;75.12;100602.93;1752525;81;21295;-59
2021/05/22 02:32:16;;;;;;;3.52;0.60;;;;;;;14.44;74.67;100610.94;1725665;82;21556;-60
2021/05/22 02:34:58;;;;;;;1.52;0.70;;;;;;;14.50;74.20;100605.88;1746483;81;21272;-60
2021/05/22 02:37:32;;;;;;;2.05;0.80;;;;;;;14.55;73.73;100608.89;1791444;79;21787;-59
2021/05/22 02:40:19;;;;;;;;;;;;;;;14.59;73.45;100607.59;1805049;79;21165;-59
2021/05/22 02:42:58;;;;;;;2.40;0.82;;;;;;;14.67;73.13;100595.80;1748711;79;20231;-59
2021/05/22 02:45:31;;;;;;;0.80;0.62;;;;;;;14.74;72.80;100568.33;1758742;81;21284;-59
2021/05/22 02:48:05;;;;;;;2.83;0.70;;;;;;;14.83;72.52;100555.56;1706490;82;21328;-60
2021/05/22 02:50:38;;;;;;;2.70;0.50;;;;;;;14.94;72.28;100559.73;1794234;79;21272;-59
2021/05/22 02:53:11;;;;;;;2.35;0.60;;;;;;;15.04;72.01;100573.63;1754880;81;21756;-59
2021/05/22 02:55:45;;;;;;;1.75;0.70;;;;;;;15.13;71.66;100580.59;1802982;79;21204;-60
2021/05/22 02:58:18;;;;;;;2.27;0.80;;;;;;;15.25;71.30;100585.93;1802834;79;21177;-62
2021/05/22 03:00:52;;;;;;;2.58;0.70;;;;;;;15.37;70.84;100592.09;1783274;79;21268;-62
2021/05/22 03:03:25;;;;;;;4.07;0.70;;;;;;;15.46;70.60;100592.48;1766237;80;21256;-63
2021/05/22 03:06:00;;;;;;;2.08;0.60;;;;;;;15.57;70.18;100599.27;1750870;81;21798;-62
2021/05/22 03:08:48;;;;;;;1.15;0.50;;;;;;;15.67;69.93;100606.57;1739744;81;21161;-62
2021/05/22 03:11:22;;;;;;;1.95;0.88;;;;;;;15.74;69.44;100614.70;1739498;81;21189;-62
2021/05/22 03:13:54;;;;;;;;;;;;;;;15.76;69.08;100611.40;1751880;81;21269;-62
2021/05/22 03:16:27;;;;;;;0.57;0.53;;;;;;;15.77;68.80;100600.67;1721709;82;20173;-62
2021/05/22 03:19:00;;;;;;;0.80;0.53;;;;;;;15.75;68.83;100602.64;1716785;82;21278;-60
2021/05/22 03:21:34;;;;;;;1.15;0.45;;;;;;;15.74;68.77;100623.94;1706884;82;21182;-59
2021/05/22 03:24:08;;;;;;;2.70;0.80;;;;;;;15.73;68.88;100631.51;1724463;82;21273;-59
2021/05/22 03:26:41;;;;;;;4.33;0.90;;;;;;;15.75;68.86;100630.85;1714551;82;21292;-59
2021/05/22 03:29:14;;;;;;;2.27;0.62;;;;;;;15.87;68.78;100629.57;1709066;82;21296;-60
2021/05/22 03:31:47;;;;;;;2.77;0.70;;;;;;;16.14;68.32;100619.55;1703502;82;21882;-60
2021/05/22 03:34:20;;;;;;;1.62;0.50;;;;;;;16.37;67.73;100618.92;1719129;82;21868;-62
2021/05/22 03:36:54;;;;;;;2.20;0.62;;;;;;;16.43;66.96;100620.41;1711400;82;21839;-62
2021/05/22 03:39:27;;;;;;;1.15;0.60;;;;;;;16.42;66.80;100610.01;1714545;82;21300;-63
2021/05/22 03:42:00;;;;;;;;;;;;;;;16.74;66.18;100609.52;1761701;81;21283;-61
2021/05/22 03:44:33;;;;;;;1.50;0.72;;;;;;;17.37;65.00;100604.75;1754083;80;20250;-60
2021/05/22 03:47:06;;;;;;;2.27;0.50;;;;;;;17.75;63.85;100614.53;1785724;79;21256;-60
2021/05/22 03:49:40;;;;;;;2.10;0.60;;;;;;;17.83;63.07;100580.57;1772441;79;21735;-60
2021/05/22 03:52:13;;;;;;;2.10;0.50;;;;;;;18.07;62.12;100564.02;1751858;81;21316;-61
2021/05/22 03:54:46;;;;;;;;;;;;;;;18.07;62.12;100564.02;1705098;82;21775;-63
2021/05/22 03:57:19;;;;;;;0.55;0.40;;;;;;;18.72;60.51;100578.88;1720639;82;20286;-61
2021/05/22 03:59:54;;;;;;;1.62;0.60;;;;;;;19.18;59.17;100604.77;1762115;81;21394;-61
2021/05/22 04:02:27;;;;;;;1.17;0.60;;;;;;;19.23;58.30;100607.70;1723720;82;21194;-61
2021/05/22 04:05:00;;;;;;;;;;;;;;;19.05;57.91;100628.48;1722700;82;21780;-63
2021/05/22 04:07:33;;;;;;;1.98;0.40;;;;;;;18.75;57.88;100642.19;1727265;82;20229;-61
2021/05/22 04:10:07;;;;;;;1.33;0.60;;;;;;;18.38;58.28;100641.31;1717718;82;21855;-62
2021/05/22 04:12:40;;;;;;;5.08;0.62;;;;;;;18.02;58.72;100618.03;1737499;81;21469;-62
2021/05/22 04:15:14;;;;;;;3.80;0.50;;;;;;;17.65;59.40;100627.16;1784862;79;21168;-61
2021/05/22 04:17:47;;;;;;;1.52;0.50;;;;;;;17.44;60.03;100642.77;1751959;81;21280;-61
2021/05/22 04:20:20;;;;;;;1.80;0.60;;;;;;;17.29;60.52;100675.72;1733112;81;21272;-61
2021/05/22 04:22:53;;;;;;;1.75;0.50;;;;;;;17.23;60.93;100684.34;1758523;81;21846;-61
2021/05/22 04:25:27;;;;;;;0.75;0.30;;;;;;;17.30;61.12;100677.87;1713935;82;21265;-61
2021/05/22 04:28:00;;;;;;;1.50;0.60;;;;;;;17.50;60.89;100698.48;1734353;81;21799;-60
2021/05/22 04:30:34;;;;;;;1.15;0.68;;;;;;;17.74;60.48;100706.91;1760618;81;21347;-62
2021/05/22 04:33:07;;;;;;;5.08;0.90;;;;;;;17.89;59.77;100716.27;1722888;82;21888;-61
2021/05/22 04:35:40;;;;;;;3.90;0.90;;;;;;;18.00;59.73;100719.88;1748103;81;21826;-61
2021/05/22 04:38:14;;;;;;;2.15;0.65;;;;;;;18.50;59.53;100727.42;1764504;81;21573;-64
2021/05/22 04:40:47;;;;;;;1.62;0.60;;;;;;;19.48;58.04;100754.34;1688640;82;21388;-61
2021/05/22 04:43:20;;;;;;;1.10;0.50;;;;;;;20.27;55.55;100755.44;1791722;79;21324;-62
2021/05/22 04:45:54;;;;;;;2.95;0.62;;;;;;;20.48;53.96;100744.33;1791759;79;21263;-62
2021/05/22 04:48:28;;;;;;;4.35;0.65;;;;;;;20.35;52.86;100742.84;1794276;79;21275;-62
2021/05/22 04:51:01;;;;;;;12.95;0.93;;;;;;;19.95;52.90;100722.91;1766903;80;21318;-62
2021/05/22 04:53:34;;;;;;;;;;;;;;;19.40;54.02;100675.58;1772722;79;21345;-61
2021/05/22 04:56:07;;;;;;;1.65;1.00;;;;;;;18.94;54.97;100627.58;1777767;79;20599;-64
2021/05/22 04:58:40;;;;;;;3.47;1.12;;;;;;;18.47;56.34;100596.53;1801269;79;22036;-62
2021/05/22 05:01:13;;;;;;;1.77;0.73;;;;;;;18.22;57.39;100600.35;1776230;79;21331;-63
2021/05/22 05:03:46;;;;;;;1.02;0.50;;;;;;;18.09;58.00;100620.31;1778296;79;21279;-61
2021/05/22 05:06:19;;;;;;;1.80;0.50;;;;;;;18.07;58.24;100658.08;1768740;78;21870;-64
2021/05/22 05:08:53;;;;;;;1.15;0.60;;;;;;;18.16;58.06;100664.14;1770206;80;22507;-61
2021/05/22 05:11:27;;;;;;;2.33;0.60;;;;;;;18.25;57.98;100647.68;1730410;80;21387;-65
2021/05/22 05:14:01;;;;;;;0.95;0.50;;;;;;;18.40;57.88;100649.41;1771486;79;21834;-65
2021/05/22 05:16:34;;;;;;;0.55;0.55;;;;;;;19.18;57.23;100623.85;1794262;79;21327;-64
2021/05/22 05:19:07;;;;;;;1.62;0.70;;;;;;;20.05;55.32;100619.80;1776928;79;21206;-64
2021/05/22 05:21:41;;;;;;;2.17;0.78;;;;;;;20.46;53.21;100604.08;1779759;79;21185;-68
2021/05/22 05:24:15;;;;;;;2.20;0.70;;;;;;;20.51;52.48;100607.48;1791450;79;21173;-67
2021/05/22 05:26:50;;;;;;;2.10;0.62;;;;;;;20.46;52.10;100617.38;1782954;79;21287;-65
2021/05/22 05:29:39;;;;;;;2.02;0.60;;;;;;;20.39;52.14;100620.98;1763500;79;21323;-68
2021/05/22 05:32:10;;;;;;;2.05;0.80;;;;;;;20.27;52.27;100615.35;1782393;78;21336;-63
2021/05/22 05:34:43;;;;;;;2.37;0.72;;;;;;;20.18;52.15;100625.73;1779103;79;21811;-64
2021/05/22 05:37:17;;;;;;;1.37;0.88;;;;;;;20.14;51.86;100617.83;1735818;81;21592;-63
2021/05/22 05:39:53;;;;;;;0.85;0.57;;;;;;;20.09;51.78;100634.34;1755555;79;21311;-65
2021/05/22 05:42:29;;;;;;;4.03;0.60;;;;;;;20.13;52.05;100634.28;1756705;80;21361;-69
2021/05/22 05:45:04;;;;;;;3.50;0.70;;;;;;;20.48;51.40;100645.09;1756402;79;21895;-65
2021/05/22 05:47:37;;;;;;;6.30;1.05;;;;;;;21.33;50.24;100667.07;1762113;79;21288;-64
2021/05/22 05:50:11;;;;;;;1.72;0.53;;;;;;;22.34;48.47;100695.13;1745201;81;21110;-66
2021/05/22 05:52:45;;;;;;;1.37;0.50;;;;;;;23.27;46.36;100715.55;1736822;81;21252;-65
2021/05/22 05:55:18;;;;;;;0.50;0.40;;;;;;;24.18;44.79;100725.23;1734668;81;21322;-68
2021/05/22 05:57:53;;;;;;;1.82;0.70;;;;;;;25.11;42.78;100741.02;1761937;79;21177;-64
2021/05/22 06:00:28;;;;;;;1.00;0.62;;;;;;;25.82;40.66;100766.86;1783459;79;21142;-60
2021/05/22 06:03:02;;;;;;;4.95;0.85;;;;;;;26.22;38.78;100779.34;1768068;79;21288;-60
2021/05/22 06:05:36;;;;;;;1.87;0.90;;;;;;;26.09;37.62;100771.72;1754480;79;21248;-60
2021/05/22 06:08:10;;;;;;;4.37;1.07;;;;;;;26.09;37.62;100771.72;1776642;79;21262;-60
2021/05/22 06:10:44;;;;;;;1.57;0.70;;;;;;;26.15;38.04;100774.06;1781419;79;21256;-59
2021/05/22 06:13:30;;;;;;;1.02;0.50;;;;;;;26.00;37.78;100784.32;1772668;79;21868;-61
2021/05/22 06:18:53;;;;;;;2.70;0.90;;;;;;;25.45;37.79;100785.29;1765331;79;21252;-60
2021/05/22 06:21:28;;;;;;;2.62;0.82;;;;;;;24.67;40.22;100820.94;1760412;80;21208;-60
2021/05/22 06:24:01;;;;;;;1.87;0.72;;;;;;;24.55;39.80;100830.13;1769399;79;21331;-60
2021/05/22 06:26:34;;;;;;;7.08;0.98;;;;;;;24.55;39.80;100830.13;1736615;80;21311;-59
2021/05/22 06:29:07;;;;;;;1.82;0.75;;;;;;;24.52;40.19;100821.72;1716388;81;21323;-60
2021/05/22 06:31:41;;;;;;;1.95;0.68;;;;;;;24.92;40.31;100807.62;1778286;79;21342;-63
2021/05/22 06:34:15;;;;;;;2.37;0.60;;;;;;;25.31;39.82;100801.98;1779242;79;21299;-60
2021/05/22 06:36:48;;;;;;;3.58;0.90;;;;;;;25.37;39.34;100827.39;1777001;79;21204;-62
2021/05/22 06:39:21;;;;;;;1.80;0.50;;;;;;;25.38;38.91;100837.08;1728399;81;21215;-59
2021/05/22 06:41:54;;;;;;;0.85;0.40;;;;;;;25.48;39.16;100830.44;1689045;84;21230;-59
2021/05/22 06:44:45;;;;;;;0.80;0.70;;;;;;;25.77;38.48;100812.33;1770700;79;21282;-61
2021/05/22 06:47:05;;;;;;;1.30;0.80;;;;;;;25.96;37.79;100816.13;1772611;79;21304;-62
2021/05/22 06:49:39;;;;;;;5.00;1.05;;;;;;;26.22;37.44;100807.53;1725367;81;21227;-61
2021/05/22 06:52:12;;;;;;;1.47;0.70;;;;;;;26.22;37.44;100807.53;1745964;81;21348;-60
2021/05/22 06:54:46;;;;;;;7.05;1.10;;;;;;;26.46;37.01;100803.93;1726982;82;21308;-60
2021/05/22 06:57:18;;;;;;;;;;;;;;;26.68;36.67;100798.34;1715203;82;21343;-59
2021/05/22 06:59:53;;;;;;;2.52;0.70;;;;;;;26.81;35.74;100800.88;1691160;81;20244;-60
2021/05/22 07:02:25;;;;;;;2.90;0.80;;;;;;;26.65;36.35;100795.58;1701686;82;21210;-65
2021/05/22 07:05:00;;;;;;;1.42;0.50;;;;;;;26.60;36.05;100797.33;1774664;79;21323;-63
2021/05/22 07:07:32;;;;;;;2.65;0.60;;;;;;;26.35;36.66;100807.35;1763945;79;21815;-61
2021/05/22 07:10:08;;;;;;;0.62;0.50;;;;;;;26.18;37.51;100834.50;1763050;79;21306;-64
2021/05/22 07:12:42;;;;;;;4.00;0.72;;;;;;;26.30;37.15;100854.18;1770681;80;21185;-61
2021/05/22 07:15:16;;;;;;;3.95;0.70;;;;;;;26.48;37.02;100865.76;1774155;79;21277;-62
2021/05/22 07:17:49;;;;;;;1.20;0.93;;;;;;;26.76;36.75;100855.81;1765443;79;21954;-61
2021/05/22 07:20:22;;;;;;;3.67;0.70;;;;;;;26.91;36.41;100848.69;1769197;79;21331;-63
2021/05/22 07:22:56;;;;;;;4.62;1.05;;;;;;;27.01;35.86;100840.36;1774590;79;21310;-65
2021/05/22 07:25:29;;;;;;;;;;;;;;;27.11;35.69;100819.64;1779664;79;21354;-62
2021/05/22 07:28:02;;;;;;;1.17;0.70;;;;;;;27.59;35.68;100819.50;1730665;81;20236;-68
2021/05/22 07:30:35;;;;;;;3.72;0.57;;;;;;;28.38;34.39;100819.67;1715245;82;21387;-62
2021/05/22 07:33:08;;;;;;;0.40;0.35;;;;;;;29.25;32.95;100817.56;1783880;79;21220;-62
2021/05/22 07:35:43;;;;;;;1.60;0.98;;;;;;;30.06;31.84;100818.27;1789625;79;21169;-67
2021/05/22 07:38:16;;;;;;;1.85;0.70;;;;;;;30.70;30.28;100790.94;1772227;79;21318;-60
2021/05/22 07:40:50;;;;;;;2.22;1.00;;;;;;;30.65;30.47;100763.33;1730950;79;21358;-62
2021/05/22 07:43:23;;;;;;;1.10;0.95;;;;;;;30.10;30.36;100738.91;1776537;79;21264;-63
2021/05/22 07:45:58;;;;;;;1.87;0.95;;;;;;;29.45;30.97;100729.41;1755998;79;21224;-62
2021/05/22 07:48:32;;;;;;;1.10;0.85;;;;;;;29.23;32.01;100734.20;1756931;80;21733;-60
2021/05/22 07:51:06;;;;;;;2.50;1.02;;;;;;;29.50;32.32;100730.80;1771296;79;21256;-62
2021/05/22 07:53:39;;;;;;;3.30;1.00;;;;;;;29.87;31.30;100711.13;1759276;79;21270;-63
2021/05/22 07:56:13;;;;;;;4.35;1.10;;;;;;;30.23;30.87;100698.84;1769527;80;21733;-61
2021/05/22 07:58:47;;;;;;;19.70;2.22;;;;;;;30.59;30.77;100686.52;1773264;79;21228;-60
2021/05/22 08:01:20;;;;;;;6.37;1.50;;;;;;;30.65;29.80;100666.56;1768096;80;21296;-58
2021/05/22 08:03:54;;;;;;;2.70;1.10;;;;;;;30.46;30.27;100670.19;1776804;79;21287;-60
2021/05/22 08:06:27;;;;;;;2.90;1.20;;;;;;;30.50;30.11;100684.80;1780020;79;21294;-61
2021/05/22 08:09:00;;;;;;;2.42;0.98;;;;;;;30.56;30.05;100699.19;1728951;81;21398;-61
2021/05/22 08:11:33;;;;;;;3.00;1.10;;;;;;;30.68;30.39;100705.25;1793670;79;21816;-62
2021/05/22 08:14:07;;;;;;;1.75;1.00;;;;;;;30.77;30.01;100725.84;1765341;79;21138;-63
2021/05/22 08:16:41;;;;;;;2.08;1.10;;;;;;;30.83;29.67;100737.83;1772720;79;21169;-61
2021/05/22 08:19:13;;;;;;;;;;;;;;;30.92;29.86;100740.36;1729475;81;21363;-61
2021/05/22 08:21:47;;;;;;;1.92;1.10;;;;;;;30.88;29.65;100733.78;1764675;79;20173;-66
2021/05/22 08:24:20;;;;;;;3.85;0.95;;;;;;;30.91;30.13;100727.90;1771010;79;21333;-63
2021/05/22 08:26:53;;;;;;;5.20;0.80;;;;;;;30.87;29.49;100730.00;1750326;80;21988;-62
2021/05/22 08:29:28;;;;;;;2.35;0.80;;;;;;;30.83;29.79;100749.16;1761344;79;21889;-63
2021/05/22 08:32:01;;;;;;;9.58;7.15;;;;;;;30.82;29.68;100756.45;1735220;81;21284;-59
2021/05/22 08:34:39;;;;;;;2.50;1.25;;;;;;;31.06;29.93;100763.72;1706265;82;21324;-61
2021/05/22 08:37:11;;;;;;;3.33;1.90;;;;;;;31.12;29.20;100769.46;1702274;81;21259;-60
2021/05/22 08:39:45;;;;;;;2.17;1.05;;;;;;;30.88;29.19;100762.17;1701372;82;21171;-61
2021/05/22 08:42:24;;;;;;;2.12;0.80;;;;;;;30.70;29.72;100757.16;1706343;82;21230;-59
2021/05/22 08:45:17;;;;;;;1.72;0.80;;;;;;;30.72;30.09;100761.76;1691896;82;21313;-61
2021/05/22 08:47:52;;;;;;;2.42;0.80;;;;;;;30.83;29.84;100761.33;1714222;82;21373;-61
2021/05/22 08:50:25;;;;;;;2.95;0.62;;;;;;;30.82;29.62;100767.27;1756717;80;21879;-61
2021/05/22 08:52:58;;;;;;;4.10;0.95;;;;;;;30.76;30.09;100753.97;1745814;79;22159;-60
2021/05/22 08:55:31;;;;;;;1.92;0.75;;;;;;;30.77;30.32;100746.13;1769293;79;21446;-58
2021/05/22 08:58:04;;;;;;;2.58;1.02;;;;;;;30.76;29.83;100731.81;1757201;79;21174;-58
2021/05/22 09:00:40;;;;;;;4.97;1.10;;;;;;;30.80;29.93;100737.50;1766318;80;21221;-60
2021/05/22 09:03:14;;;;;;;1.75;0.70;;;;;;;30.82;29.19;100746.17;1760130;79;21307;-57
2021/05/22 09:05:47;;;;;;;1.30;0.70;;;;;;;30.58;30.05;100733.52;1783497;79;21291;-58
2021/05/22 09:08:22;;;;;;;3.60;0.90;;;;;;;30.45;29.98;100727.19;1780008;79;21268;-59
2021/05/22 09:11:02;;;;;;;3.67;0.95;;;;;;;30.41;30.47;100736.33;1784491;79;21137;-58
2021/05/22 09:13:36;;;;;;;3.33;1.00;;;;;;;30.13;30.46;100724.38;1780654;79;21379;-57
2021/05/22 09:16:10;;;;;;;2.67;1.00;;;;;;;29.87;30.89;100723.80;1772441;79;21176;-59
2021/05/22 09:18:47;;;;;;;2.75;0.98;;;;;;;29.57;30.66;100726.87;1766126;79;21301;-59
2021/05/22 09:21:21;;;;;;;2.27;1.20;;;;;;;29.21;31.68;100732.28;1775183;79;21223;-57
2021/05/22 09:23:58;;;;;;;3.37;1.30;;;;;;;29.03;31.61;100725.77;1739041;80;21169;-59
2021/05/22 09:26:35;;;;;;;5.33;0.90;;;;;;;28.87;32.33;100723.08;1768118;79;21233;-60
2021/05/22 09:29:09;;;;;;;4.28;0.95;;;;;;;28.68;32.86;100711.16;1772932;79;21344;-59
2021/05/22 09:31:42;;;;;;;1.32;0.80;;;;;;;28.48;33.00;100711.31;1750214;79;21271;-61
2021/05/22 09:34:15;;;;;;;;;;;;;;;28.30;33.36;100708.28;1735756;80;21307;-59
2021/05/22 09:37:17;;;;;;;4.03;0.80;;;;;;;28.24;33.88;100707.09;1739614;81;21438;-58
2021/05/22 09:39:51;;;;;;;2.90;1.40;;;;;;;28.15;33.73;100700.47;1771598;79;21260;-59
2021/05/22 09:42:31;;;;;;;10.63;1.70;;;;;;;27.94;34.16;100707.30;1740940;81;21266;-60
2021/05/22 09:45:05;;;;;;;2.02;0.90;;;;;;;27.71;34.47;100717.58;1771977;80;21421;-58
2021/05/22 09:47:38;;;;;;;3.95;1.30;;;;;;;27.46;34.35;100712.18;1722339;79;21306;-58
2021/05/22 09:50:27;;;;;;;2.70;1.20;;;;;;;27.17;34.47;100717.42;1661765;84;21232;-57
2021/05/22 09:53:01;;;;;;;3.40;1.05;;;;;;;26.92;35.57;100703.88;1769600;79;21766;-58
2021/05/22 09:55:36;;;;;;;3.72;0.75;;;;;;;26.50;36.43;100703.07;1759141;79;21379;-59
2021/05/22 09:58:10;;;;;;;3.75;1.20;;;;;;;26.50;36.43;100703.07;1749527;80;21669;-62
2021/05/22 10:00:43;;;;;;;3.50;1.00;;;;;;;26.32;36.63;100703.14;1697119;82;21769;-59
2021/05/22 10:03:22;;;;;;;8.25;1.37;;;;;;;26.26;37.17;100700.83;1677933;83;21226;-60
2021/05/22 10:05:56;;;;;;;1.20;0.75;;;;;;;26.26;37.17;100700.83;1701456;82;21336;-59
2021/05/22 10:08:29;;;;;;;3.62;0.85;;;;;;;26.23;36.62;100706.64;1697240;83;21322;-60
2021/05/22 10:11:02;;;;;;;2.75;0.90;;;;;;;26.09;36.98;100703.30;1691824;82;21237;-60
2021/05/22 10:13:37;;;;;;;4.10;0.80;;;;;;;25.93;37.43;100704.44;1711386;82;21388;-63
2021/05/22 10:16:10;;;;;;;3.65;1.02;;;;;;;25.80;37.79;100700.04;1708609;82;21303;-59
2021/05/22 10:18:43;;;;;;;3.83;0.95;;;;;;;25.73;38.15;100708.69;1709048;82;21346;-65
2021/05/22 10:21:16;;;;;;;8.90;1.27;;;;;;;25.67;38.15;100720.32;1706003;82;21980;-64
2021/05/22 10:23:49;;;;;;;6.30;1.25;;;;;;;25.38;38.51;100708.94;1706145;82;21288;-67
2021/05/22 10:26:21;;;;;;;;;;;;;;;25.38;38.51;100708.94;1705225;82;21914;-58
2021/05/22 10:28:54;;;;;;;3.62;1.22;;;;;;;25.29;38.77;100712.41;1691553;83;20319;-60
2021/05/22 10:31:27;;;;;;;8.13;1.22;;;;;;;25.19;39.28;100709.43;1682860;83;22262;-67
2021/05/22 10:34:02;;;;;;;10.10;1.40;;;;;;;25.20;39.36;100719.61;1723137;82;21343;-66
2021/05/22 10:37:00;;;;;;;2.47;0.90;;;;;;;25.16;39.09;100715.22;1720188;79;21339;-63
2021/05/22 10:39:44;;;;;;;0.60;0.60;;;;;;;25.15;39.28;100712.77;1774167;79;21264;-62
2021/05/22 10:42:28;;;;;;;1.47;0.57;;;;;;;25.28;39.13;100720.16;1761092;80;21232;-67
2021/05/22 10:45:27;;;;;;;1.27;0.70;;;;;;;25.38;38.73;100719.14;1762350;80;21248;-62
2021/05/22 10:48:02;;;;;;;16.85;1.50;;;;;;;25.48;38.96;100722.69;1682904;82;21672;-67
2021/05/22 10:50:47;;;;;;;4.37;0.90;;;;;;;25.54;38.48;100722.30;1704797;82;21264;-64
2021/05/22 10:53:34;;;;;;;2.10;0.80;;;;;;;25.56;38.43;100713.00;1778849;79;21951;-71
2021/05/22 10:56:15;;;;;;;16.15;1.80;;;;;;;25.65;38.21;100708.17;1770837;79;21162;-66
2021/05/22 10:59:07;;;;;;;2.90;1.00;;;;;;;25.81;38.55;100720.98;1772666;79;21266;-65
2021/05/22 11:01:40;;;;;;;5.75;1.20;;;;;;;25.85;38.32;100710.92;1711051;81;22012;-64
2021/05/22 11:04:21;;;;;;;3.45;0.90;;;;;;;25.81;37.07;100711.59;1760167;79;21928;-60
2021/05/22 11:07:16;;;;;;;3.50;1.07;;;;;;;25.69;38.34;100712.87;1767492;79;21323;-63
2021/05/22 11:09:51;;;;;;;6.75;1.70;;;;;;;25.61;38.23;100710.98;1765307;79;21230;-61
2021/05/22 11:12:30;;;;;;;2.37;1.20;;;;;;;25.52;37.94;100712.33;1760819;79;21264;-64
2021/05/22 11:15:04;;;;;;;7.33;1.30;;;;;;;25.50;37.73;100718.44;1755431;79;21367;-61
2021/05/22 11:17:44;;;;;;;1.90;1.22;;;;;;;25.59;38.33;100722.45;1760723;79;21206;-65
2021/05/22 11:20:19;;;;;;;2.25;1.17;;;;;;;25.67;37.82;100724.34;1744041;79;21141;-63
2021/05/22 11:23:00;;;;;;;4.10;2.27;;;;;;;25.62;37.37;100726.88;1765892;79;21299;-63
2021/05/22 11:25:52;;;;;;;3.58;1.20;;;;;;;25.47;37.67;100717.02;1766464;79;21291;-60
2021/05/22 11:28:24;;;;;;;1.98;0.90;;;;;;;25.46;38.34;100713.23;1740187;81;21230;-61
2021/05/22 11:30:57;;;;;;;6.55;1.10;;;;;;;25.47;38.36;100717.53;1704500;82;21822;-59
2021/05/22 11:33:31;;;;;;;2.40;0.95;;;;;;;25.40;38.58;100717.57;1765151;79;21834;-59
2021/05/22 11:36:14;;;;;;;4.40;1.95;;;;;;;25.30;38.41;100718.59;1762405;79;21340;-62
2021/05/22 11:38:53;;;;;;;4.75;1.22;;;;;;;25.34;38.71;100719.78;1761589;79;21134;-60
2021/05/22 11:41:31;;;;;;;1.47;0.80;;;;;;;25.43;38.25;100723.84;1775544;78;21256;-59
2021/05/22 11:44:07;;;;;;;3.87;0.80;;;;;;;25.49;38.27;100712.76;1736789;80;21272;-59
2021/05/22 11:46:41;;;;;;;2.22;1.25;;;;;;;25.48;38.41;100717.33;1758133;79;21328;-60
2021/05/22 11:49:14;;;;;;;2.72;0.75;;;;;;;25.53;38.80;100715.32;1728231;81;21334;-62
2021/05/22 11:51:47;;;;;;;7.35;1.20;;;;;;;25.60;38.29;100709.36;1762592;79;21199;-59
2021/05/22 11:54:20;;;;;;;4.45;0.90;;;;;;;25.60;37.89;100718.75;1734847;81;21924;-59
2021/05/22 11:56:54;;;;;;;3.20;1.10;;;;;;;25.53;37.69;100718.80;1718110;82;21272;-60
2021/05/22 11:59:27;;;;;;;5.78;1.95;;;;;;;25.53;37.69;100718.80;1787147;79;21328;-58
2021/05/22 12:02:00;;;;;;;4.33;1.85;;;;;;;25.53;37.81;100718.80;1777785;79;21867;-59
2021/05/22 12:04:35;;;;;;;1.50;0.90;;;;;;;25.56;37.97;100721.55;1758826;79;21328;-60
2021/05/22 12:07:08;;;;;;;6.10;2.33;;;;;;;25.53;37.96;100714.77;1688424;82;21212;-59